createdAt,value
2022-08-08T00:00:52.141Z,80.99
2022-08-08T00:01:19.328Z,81.20
2022-08-08T00:02:31.159Z,80.99
2022-08-08T00:03:31.253Z,80.79
2022-08-08T00:04:19.333Z,81.30
2022-08-08T00:05:19.291Z,81.81
2022-08-08T00:06:28.536Z,81.95
2022-08-08T00:07:19.289Z,82.15
2022-08-08T00:08:19.260Z,82.25
2022-08-08T00:09:19.801Z,82.35
2022-08-08T00:10:28.171Z,82.35
2022-08-08T00:11:19.380Z,82.05
2022-08-08T00:12:23.832Z,82.35
2022-08-08T00:13:20.802Z,82.66
2022-08-08T00:14:57.046Z,82.39
2022-08-08T00:15:24.026Z,82.39
2022-08-08T00:16:19.227Z,82.70
2022-08-08T00:17:22.899Z,82.29
2022-08-08T00:18:19.196Z,82.29
2022-08-08T00:19:19.206Z,82.59
2022-08-08T00:20:19.186Z,82.59
2022-08-08T00:21:19.174Z,83.00
2022-08-08T00:22:19.186Z,82.84
2022-08-08T00:23:19.164Z,83.54
2022-08-08T00:24:19.157Z,83.34
2022-08-08T00:25:19.163Z,83.54
2022-08-08T00:26:26.468Z,83.65
2022-08-08T00:27:19.205Z,83.45
2022-08-08T00:28:34.931Z,83.45
2022-08-08T00:29:45.441Z,83.65
2022-08-08T00:30:19.145Z,83.95
2022-08-08T00:32:29.343Z,83.75
2022-08-08T00:32:33.984Z,83.75
2022-08-08T00:33:19.124Z,83.54
2022-08-08T00:34:19.828Z,83.24
2022-08-08T00:35:20.430Z,83.65
2022-08-08T00:36:19.075Z,84.05
2022-08-08T00:37:47.413Z,83.75
2022-08-08T00:38:31.234Z,83.85
2022-08-08T00:39:36.235Z,83.54
2022-08-08T00:41:12.384Z,83.65
2022-08-08T00:41:19.081Z,83.24
2022-08-08T00:42:32.989Z,83.45
2022-08-08T00:43:20.280Z,83.85
2022-08-08T00:44:19.042Z,83.95
2022-08-08T00:45:21.545Z,84.20
2022-08-08T00:46:19.019Z,84.50
2022-08-08T00:47:22.971Z,83.99
2022-08-08T00:48:29.221Z,83.48
2022-08-08T00:49:22.540Z,83.48
2022-08-08T00:50:19.223Z,83.89
2022-08-08T00:51:18.972Z,84.30
2022-08-08T00:52:19.837Z,84.50
2022-08-08T00:53:18.994Z,84.60
2022-08-08T00:54:19.115Z,84.60
2022-08-08T00:55:18.960Z,84.60
2022-08-08T00:56:18.944Z,84.50
2022-08-08T00:57:19.764Z,84.20
2022-08-08T00:58:18.940Z,84.70
2022-08-08T00:59:44.069Z,84.80
2022-08-08T01:00:18.970Z,84.80
2022-08-08T01:01:19.701Z,84.74
2022-08-08T01:03:55.665Z,84.74
2022-08-08T01:04:01.689Z,84.23
2022-08-08T01:04:18.933Z,84.09
2022-08-08T01:05:29.265Z,84.20
2022-08-08T01:06:27.241Z,84.30
2022-08-08T01:07:18.930Z,83.53
2022-08-08T01:08:18.872Z,83.93
2022-08-08T01:09:36.217Z,83.93
2022-08-08T01:10:18.868Z,84.03
2022-08-08T01:11:18.848Z,83.93
2022-08-08T01:12:18.833Z,83.83
2022-08-08T01:13:23.034Z,83.53
2022-08-08T01:14:18.838Z,83.32
2022-08-08T01:15:37.341Z,82.92
2022-08-08T01:16:18.817Z,83.28
2022-08-08T01:17:18.847Z,83.18
2022-08-08T01:18:25.534Z,82.71
2022-08-08T01:19:42.165Z,82.87
2022-08-08T01:20:22.136Z,83.48
2022-08-08T01:21:34.888Z,83.22
2022-08-08T01:22:23.572Z,83.32
2022-08-08T01:24:03.819Z,83.62
2022-08-08T01:24:18.756Z,84.23
2022-08-08T01:25:18.746Z,84.44
2022-08-08T01:26:18.745Z,84.64
2022-08-08T01:27:24.117Z,84.34
2022-08-08T01:28:18.755Z,83.93
2022-08-08T01:29:18.746Z,84.03
2022-08-08T01:30:18.763Z,84.78
2022-08-08T01:32:03.026Z,85.39
2022-08-08T01:32:21.151Z,85.29
2022-08-08T01:33:27.605Z,85.49
2022-08-08T01:34:20.279Z,85.60
2022-08-08T01:35:18.687Z,84.88
2022-08-08T01:36:18.675Z,84.68
2022-08-08T01:37:21.851Z,84.78
2022-08-08T01:38:18.854Z,85.03
2022-08-08T01:39:23.606Z,86.04
2022-08-08T01:40:18.726Z,86.15
2022-08-08T01:41:18.695Z,86.04
2022-08-08T01:42:18.653Z,86.55
2022-08-08T01:43:18.661Z,86.35
2022-08-08T01:44:18.681Z,86.55
2022-08-08T01:45:18.615Z,86.65
2022-08-08T01:46:18.612Z,86.55
2022-08-08T01:48:14.117Z,85.94
2022-08-08T01:48:30.371Z,85.74
2022-08-08T01:49:23.028Z,86.35
2022-08-08T01:50:20.713Z,86.55
2022-08-08T01:51:32.378Z,86.76
2022-08-08T01:52:59.008Z,87.10
2022-08-08T01:55:16.306Z,87.00
2022-08-08T01:55:27.111Z,87.00
2022-08-08T01:56:26.628Z,87.00
2022-08-08T01:56:30.347Z,87.10
2022-08-08T01:57:18.532Z,87.00
2022-08-08T01:58:19.127Z,86.69
2022-08-08T01:59:18.521Z,86.69
2022-08-08T02:00:18.551Z,87.00
2022-08-08T02:01:18.678Z,86.59
2022-08-08T02:02:34.115Z,87.10
2022-08-08T02:03:55.624Z,87.61
2022-08-08T02:04:18.490Z,88.02
2022-08-08T02:05:18.591Z,88.32
2022-08-08T02:06:31.773Z,88.42
2022-08-08T02:07:18.480Z,88.12
2022-08-08T02:08:18.478Z,87.55
2022-08-08T02:09:18.513Z,87.75
2022-08-08T02:10:30.194Z,88.36
2022-08-08T02:11:23.543Z,88.46
2022-08-08T02:12:18.525Z,88.02
2022-08-08T02:13:52.740Z,87.14
2022-08-08T02:14:18.429Z,86.69
2022-08-08T02:15:18.409Z,86.53
2022-08-08T02:16:21.391Z,86.63
2022-08-08T02:17:20.604Z,87.45
2022-08-08T02:18:18.430Z,88.26
2022-08-08T02:19:41.450Z,88.26
2022-08-08T02:21:00.943Z,88.36
2022-08-08T02:21:20.272Z,88.16
2022-08-08T02:22:18.411Z,88.36
2022-08-08T02:23:18.581Z,88.77
2022-08-08T02:24:18.392Z,87.85
2022-08-08T02:25:18.354Z,87.85
2022-08-08T02:26:18.353Z,88.16
2022-08-08T02:27:18.347Z,87.96
2022-08-08T02:28:18.327Z,88.46
2022-08-08T02:29:19.000Z,88.87
2022-08-08T02:30:21.074Z,89.01
2022-08-08T02:31:43.962Z,89.12
2022-08-08T02:32:22.331Z,89.22
2022-08-08T02:33:18.306Z,88.87
2022-08-08T02:34:32.704Z,88.40
2022-08-08T02:35:18.397Z,88.36
2022-08-08T02:36:18.274Z,88.81
2022-08-08T02:37:52.844Z,89.01
2022-08-08T02:38:25.376Z,89.01
2022-08-08T02:39:42.069Z,89.53
2022-08-08T02:40:18.289Z,89.69
2022-08-08T02:41:59.249Z,89.73
2022-08-08T02:42:18.234Z,89.83
2022-08-08T02:44:35.029Z,89.73
2022-08-08T02:44:37.343Z,89.73
2022-08-08T02:45:21.264Z,88.81
2022-08-08T02:46:18.223Z,88.87
2022-08-08T02:47:18.234Z,89.22
2022-08-08T02:48:18.203Z,89.73
2022-08-08T02:49:18.667Z,90.14
2022-08-08T02:50:18.238Z,89.22
2022-08-08T02:51:29.766Z,88.92
2022-08-08T02:52:32.882Z,88.71
2022-08-08T02:53:18.390Z,88.61
2022-08-08T02:54:18.167Z,88.71
2022-08-08T02:55:19.751Z,88.81
2022-08-08T02:56:18.570Z,89.16
2022-08-08T02:57:18.131Z,89.47
2022-08-08T02:58:19.073Z,90.08
2022-08-08T02:59:36.770Z,89.83
2022-08-08T03:00:31.907Z,89.63
2022-08-08T03:01:18.152Z,89.94
2022-08-08T03:02:20.014Z,89.83
2022-08-08T03:03:46.185Z,90.03
2022-08-08T03:05:04.611Z,89.94
2022-08-08T03:05:18.091Z,90.03
2022-08-08T03:06:34.556Z,89.94
2022-08-08T03:07:19.617Z,89.63
2022-08-08T03:08:18.070Z,89.83
2022-08-08T03:09:18.068Z,89.63
2022-08-08T03:10:32.590Z,89.12
2022-08-08T03:11:25.651Z,89.12
2022-08-08T03:12:18.032Z,89.42
2022-08-08T03:15:53.519Z,89.63
2022-08-08T03:15:57.291Z,89.42
2022-08-08T03:15:59.071Z,89.83
2022-08-08T03:16:19.720Z,89.83
2022-08-08T03:17:25.632Z,90.24
2022-08-08T03:18:31.275Z,90.24
2022-08-08T03:19:20.041Z,90.55
2022-08-08T03:20:18.058Z,89.73
2022-08-08T03:21:18.275Z,89.73
2022-08-08T03:22:37.753Z,90.34
2022-08-08T03:23:18.095Z,90.55
2022-08-08T03:24:17.980Z,90.14
2022-08-08T03:25:19.163Z,90.34
2022-08-08T03:26:17.938Z,89.57
2022-08-08T03:27:18.258Z,89.47
2022-08-08T03:28:19.081Z,89.47
2022-08-08T03:29:20.645Z,89.67
2022-08-08T03:30:19.214Z,90.28
2022-08-08T03:31:25.206Z,90.32
2022-08-08T03:32:17.966Z,90.42
2022-08-08T03:33:55.935Z,90.73
2022-08-08T03:34:17.910Z,91.03
2022-08-08T03:35:17.905Z,91.65
2022-08-08T03:36:19.863Z,92.16
2022-08-08T03:37:59.871Z,91.85
2022-08-08T03:38:57.152Z,91.35
2022-08-08T03:39:17.981Z,91.75
2022-08-08T03:40:29.857Z,91.85
2022-08-08T03:42:12.991Z,91.65
2022-08-08T03:42:30.198Z,91.75
2022-08-08T03:43:20.087Z,92.26
2022-08-08T03:44:17.844Z,92.16
2022-08-08T03:46:07.357Z,92.26
2022-08-08T03:46:18.464Z,92.57
2022-08-08T03:47:20.383Z,93.02
2022-08-08T03:48:21.097Z,93.32
2022-08-08T03:49:57.464Z,93.28
2022-08-08T03:50:19.927Z,92.87
2022-08-08T03:51:19.365Z,92.36
2022-08-08T03:52:17.821Z,92.20
2022-08-08T03:53:24.213Z,92.20
2022-08-08T03:54:41.094Z,92.30
2022-08-08T03:55:56.867Z,91.96
2022-08-08T03:56:31.521Z,91.55
2022-08-08T03:58:32.954Z,91.59
2022-08-08T03:58:36.418Z,91.89
2022-08-08T03:59:22.891Z,92.71
2022-08-08T04:00:18.486Z,93.43
2022-08-08T04:01:23.121Z,93.73
2022-08-08T04:02:47.402Z,94.04
2022-08-08T04:03:17.769Z,93.73
2022-08-08T04:04:17.774Z,93.52
2022-08-08T04:05:19.429Z,93.43
2022-08-08T04:06:17.710Z,93.63
2022-08-08T04:07:17.670Z,92.71
2022-08-08T04:08:33.411Z,92.91
2022-08-08T04:09:17.658Z,92.81
2022-08-08T04:10:17.679Z,93.73
2022-08-08T04:11:23.299Z,93.22
2022-08-08T04:12:18.319Z,93.12
2022-08-08T04:13:18.889Z,93.07
2022-08-08T04:14:33.900Z,92.97
2022-08-08T04:15:17.665Z,93.07
2022-08-08T04:16:18.596Z,92.67
2022-08-08T04:17:46.009Z,92.57
2022-08-08T04:18:18.496Z,92.01
2022-08-08T04:19:24.119Z,92.22
2022-08-08T04:20:17.588Z,91.81
2022-08-08T04:21:22.801Z,92.01
2022-08-08T04:22:17.801Z,92.01
2022-08-08T04:23:17.548Z,92.22
2022-08-08T04:24:28.332Z,92.11
2022-08-08T04:25:17.628Z,91.61
2022-08-08T04:26:17.537Z,91.61
2022-08-08T04:27:42.873Z,91.81
2022-08-08T04:28:36.698Z,92.01
2022-08-08T04:29:17.617Z,92.01
2022-08-08T04:30:19.385Z,92.11
2022-08-08T04:31:30.905Z,92.01
2022-08-08T04:32:30.697Z,91.91
2022-08-08T04:33:17.497Z,92.01
2022-08-08T04:34:17.476Z,92.11
2022-08-08T04:35:17.508Z,92.32
2022-08-08T04:36:17.486Z,92.22
2022-08-08T04:37:17.465Z,92.22
2022-08-08T04:38:21.860Z,92.22
2022-08-08T04:40:05.557Z,91.91
2022-08-08T04:40:17.858Z,91.87
2022-08-08T04:41:21.629Z,91.66
2022-08-08T04:42:17.427Z,91.56
2022-08-08T04:43:17.427Z,91.26
2022-08-08T04:44:17.415Z,91.16
2022-08-08T04:45:17.913Z,90.81
2022-08-08T04:46:18.517Z,90.70
2022-08-08T04:47:17.394Z,90.60
2022-08-08T04:48:17.383Z,90.55
2022-08-08T04:49:17.385Z,90.64
2022-08-08T04:50:24.796Z,91.01
2022-08-08T04:51:28.037Z,91.22
2022-08-08T04:52:18.756Z,91.01
2022-08-08T04:54:26.810Z,91.11
2022-08-08T04:54:39.679Z,91.11
2022-08-08T04:55:17.423Z,90.91
2022-08-08T04:56:17.442Z,90.56
2022-08-08T04:57:17.341Z,90.46
2022-08-08T04:58:17.729Z,90.36
2022-08-08T04:59:17.322Z,90.16
2022-08-08T05:00:19.706Z,89.75
2022-08-08T05:01:18.020Z,89.64
2022-08-08T05:02:20.271Z,89.91
2022-08-08T05:03:19.049Z,89.61
2022-08-08T05:04:17.535Z,89.09
2022-08-08T05:05:20.352Z,88.89
2022-08-08T05:06:25.382Z,88.69
2022-08-08T05:07:17.267Z,88.44
2022-08-08T05:08:18.101Z,88.13
2022-08-08T05:09:17.370Z,87.93
2022-08-08T05:10:17.250Z,87.73
2022-08-08T05:11:22.547Z,86.92
2022-08-08T05:12:20.903Z,87.29
2022-08-08T05:13:17.785Z,86.77
2022-08-08T05:14:19.778Z,86.77
2022-08-08T05:15:17.360Z,86.47
2022-08-08T05:16:51.361Z,86.37
2022-08-08T05:17:17.201Z,85.96
2022-08-08T05:18:17.179Z,85.92
2022-08-08T05:20:09.147Z,85.62
2022-08-08T05:20:17.184Z,85.41
2022-08-08T05:21:19.519Z,85.31
2022-08-08T05:22:17.561Z,85.21
2022-08-08T05:23:17.158Z,84.60
2022-08-08T05:24:17.158Z,84.60
2022-08-08T05:25:17.139Z,84.70
2022-08-08T05:26:19.774Z,84.66
2022-08-08T05:27:17.132Z,84.46
2022-08-08T05:28:48.391Z,84.46
2022-08-08T05:29:17.187Z,84.26
2022-08-08T05:30:17.108Z,84.16
2022-08-08T05:32:02.518Z,83.95
2022-08-08T05:32:17.101Z,83.61
2022-08-08T05:33:17.831Z,83.61
2022-08-08T05:34:17.076Z,83.10
2022-08-08T05:35:17.082Z,83.31
2022-08-08T05:36:25.155Z,83.00
2022-08-08T05:37:19.195Z,82.70
2022-08-08T05:38:31.746Z,82.59
2022-08-08T05:39:17.085Z,82.66
2022-08-08T05:40:17.037Z,82.66
2022-08-08T05:41:17.047Z,82.21
2022-08-08T05:42:29.543Z,81.40
2022-08-08T05:43:40.109Z,81.50
2022-08-08T05:44:17.016Z,81.60
2022-08-08T05:45:31.079Z,81.30
2022-08-08T05:46:17.198Z,81.50
2022-08-08T05:47:20.994Z,81.40
2022-08-08T05:48:16.986Z,81.50
2022-08-08T05:49:16.993Z,81.06
2022-08-08T05:50:16.993Z,80.96
2022-08-08T05:51:17.241Z,80.05
2022-08-08T05:52:16.956Z,80.45
2022-08-08T05:53:54.014Z,80.25
2022-08-08T05:54:28.137Z,80.11
2022-08-08T05:55:16.954Z,80.11
2022-08-08T05:56:16.943Z,79.60
2022-08-08T05:57:20.890Z,79.60
2022-08-08T05:58:17.623Z,79.00
2022-08-08T05:59:17.173Z,79.10
2022-08-08T06:00:24.783Z,79.30
2022-08-08T06:01:56.257Z,79.10
2022-08-08T06:02:16.893Z,79.10
2022-08-08T06:03:22.895Z,79.26
2022-08-08T06:04:23.042Z,79.06
2022-08-08T06:05:33.710Z,79.46
2022-08-08T06:06:18.148Z,78.72
2022-08-08T06:07:16.884Z,78.52
2022-08-08T06:08:33.663Z,78.08
2022-08-08T06:09:41.939Z,77.97
2022-08-08T06:10:22.546Z,77.67
2022-08-08T06:11:16.866Z,77.47
2022-08-08T06:12:18.623Z,76.15
2022-08-08T06:13:22.605Z,76.97
2022-08-08T06:14:17.928Z,76.76
2022-08-08T06:15:16.802Z,76.42
2022-08-08T06:16:18.944Z,76.42
2022-08-08T06:17:19.611Z,76.62
2022-08-08T06:18:19.908Z,75.88
2022-08-08T06:19:17.178Z,75.07
2022-08-08T06:20:16.902Z,75.17
2022-08-08T06:21:28.248Z,75.07
2022-08-08T06:22:32.691Z,75.37
2022-08-08T06:23:17.240Z,74.77
2022-08-08T06:24:23.220Z,75.27
2022-08-08T06:25:17.985Z,73.96
2022-08-08T06:26:38.539Z,74.57
2022-08-08T06:27:16.792Z,75.07
2022-08-08T06:28:16.717Z,75.04
2022-08-08T06:29:49.362Z,74.84
2022-08-08T06:30:20.424Z,73.99
2022-08-08T06:31:16.990Z,73.85
2022-08-08T06:32:17.428Z,73.35
2022-08-08T06:33:16.680Z,72.85
2022-08-08T06:34:26.067Z,72.64
2022-08-08T06:36:08.051Z,73.05
2022-08-08T06:36:17.042Z,73.45
2022-08-08T06:37:24.553Z,74.36
2022-08-08T06:38:16.658Z,73.15
2022-08-08T06:39:17.128Z,72.98
2022-08-08T06:40:17.070Z,72.98
2022-08-08T06:41:16.652Z,72.54
2022-08-08T06:42:16.656Z,73.15
2022-08-08T06:43:16.628Z,73.85
2022-08-08T06:44:22.994Z,73.45
2022-08-08T06:45:16.600Z,73.32
2022-08-08T06:46:16.589Z,72.91
2022-08-08T06:47:22.125Z,73.72
2022-08-08T06:48:16.579Z,75.13
2022-08-08T06:49:16.578Z,74.08
2022-08-08T06:50:17.577Z,71.73
2022-08-08T06:51:16.566Z,71.23
2022-08-08T06:52:16.568Z,72.20
2022-08-08T06:53:17.396Z,70.06
2022-08-08T06:54:17.583Z,70.76
2022-08-08T06:55:16.611Z,72.27
2022-08-08T06:56:16.862Z,70.76
2022-08-08T06:57:16.587Z,72.07
2022-08-08T06:58:18.748Z,70.93
2022-08-08T06:59:16.637Z,70.32
2022-08-08T07:00:16.616Z,69.18
2022-08-08T07:02:16.476Z,69.02
2022-08-08T07:02:28.852Z,69.79
2022-08-08T07:03:51.698Z,70.23
2022-08-08T07:04:40.719Z,70.73
2022-08-08T07:05:20.298Z,70.36
2022-08-08T07:06:17.277Z,70.16
2022-08-08T07:07:16.469Z,70.66
2022-08-08T07:08:16.676Z,69.85
2022-08-08T07:09:18.133Z,70.76
2022-08-08T07:10:16.916Z,70.86
2022-08-08T07:11:22.058Z,70.36
2022-08-08T07:12:16.557Z,70.23
2022-08-08T07:13:16.425Z,70.32
2022-08-08T07:14:16.405Z,69.35
2022-08-08T07:16:03.971Z,68.65
2022-08-08T07:16:16.394Z,68.65
2022-08-08T07:17:18.978Z,68.45
2022-08-08T07:18:35.645Z,69.25
2022-08-08T07:19:16.874Z,68.98
2022-08-08T07:20:16.362Z,69.99
2022-08-08T07:21:19.226Z,69.52
2022-08-08T07:22:19.198Z,69.65
2022-08-08T07:23:23.407Z,69.76
2022-08-08T07:24:17.166Z,70.32
2022-08-08T07:25:17.367Z,69.62
2022-08-08T07:26:21.606Z,69.12
2022-08-08T07:27:16.425Z,69.42
2022-08-08T07:28:19.883Z,68.91
2022-08-08T07:29:20.625Z,69.29
2022-08-08T07:30:19.584Z,69.59
2022-08-08T07:31:16.305Z,69.09
2022-08-08T07:32:17.094Z,69.18
2022-08-08T07:33:17.373Z,67.98
2022-08-08T07:34:26.938Z,68.35
2022-08-08T07:35:16.304Z,67.68
2022-08-08T07:36:16.253Z,68.59
2022-08-08T07:37:16.525Z,68.55
2022-08-08T07:38:21.167Z,68.55
2022-08-08T07:39:16.279Z,68.55
2022-08-08T07:40:21.062Z,67.65
2022-08-08T07:41:23.425Z,68.08
2022-08-08T07:42:18.904Z,68.38
2022-08-08T07:43:16.227Z,69.09
2022-08-08T07:44:38.163Z,68.95
2022-08-08T07:45:17.725Z,68.65
2022-08-08T07:46:23.466Z,68.21
2022-08-08T07:47:16.223Z,68.79
2022-08-08T07:48:16.199Z,66.67
2022-08-08T07:49:16.173Z,66.58
2022-08-08T07:50:16.415Z,66.95
2022-08-08T07:51:24.309Z,67.45
2022-08-08T07:52:23.249Z,65.57
2022-08-08T07:53:52.132Z,66.38
2022-08-08T07:54:26.971Z,66.08
2022-08-08T07:55:16.407Z,66.08
2022-08-08T07:56:16.112Z,66.44
2022-08-08T07:57:17.147Z,65.11
2022-08-08T07:58:16.122Z,65.11
2022-08-08T07:59:19.333Z,65.14
2022-08-08T08:00:16.999Z,65.31
2022-08-08T08:01:16.143Z,64.94
2022-08-08T08:02:35.302Z,63.84
2022-08-08T08:03:23.957Z,64.81
2022-08-08T08:04:16.254Z,64.40
2022-08-08T08:05:16.241Z,64.61
2022-08-08T08:06:16.461Z,65.11
2022-08-08T08:07:16.053Z,65.31
2022-08-08T08:08:16.789Z,64.40
2022-08-08T08:09:16.039Z,63.70
2022-08-08T08:10:16.023Z,64.40
2022-08-08T08:11:20.941Z,64.71
2022-08-08T08:12:35.250Z,64.01
2022-08-08T08:13:17.830Z,63.81
2022-08-08T08:14:16.182Z,63.90
2022-08-08T08:15:16.006Z,63.24
2022-08-08T08:16:17.143Z,62.92
2022-08-08T08:17:16.102Z,61.98
2022-08-08T08:18:15.968Z,61.28
2022-08-08T08:19:15.992Z,62.08
2022-08-08T08:20:16.250Z,61.68
2022-08-08T08:21:18.916Z,61.61
2022-08-08T08:22:15.966Z,61.41
2022-08-08T08:23:16.002Z,62.01
2022-08-08T08:24:15.940Z,61.98
2022-08-08T08:25:19.434Z,61.15
2022-08-08T08:26:18.045Z,61.75
2022-08-08T08:27:17.676Z,60.85
2022-08-08T08:28:21.181Z,60.98
2022-08-08T08:29:16.712Z,61.65
2022-08-08T08:30:15.899Z,62.25
2022-08-08T08:31:16.109Z,61.82
2022-08-08T08:32:31.611Z,61.65
2022-08-08T08:33:15.870Z,61.45
2022-08-08T08:34:16.206Z,62.05
2022-08-08T08:35:16.630Z,61.65
2022-08-08T08:36:19.887Z,60.68
2022-08-08T08:37:15.841Z,61.28
2022-08-08T08:38:18.172Z,60.55
2022-08-08T08:39:17.563Z,60.55
2022-08-08T08:40:15.881Z,60.32
2022-08-08T08:41:17.710Z,60.59
2022-08-08T08:42:19.358Z,59.17
2022-08-08T08:43:17.111Z,58.59
2022-08-08T08:44:15.982Z,59.09
2022-08-08T08:45:22.870Z,58.59
2022-08-08T08:46:18.912Z,59.09
2022-08-08T08:47:16.124Z,58.62
2022-08-08T08:48:19.281Z,58.29
2022-08-08T08:49:16.409Z,57.97
2022-08-08T08:50:31.887Z,58.86
2022-08-08T08:51:15.757Z,57.26
2022-08-08T08:52:15.809Z,56.87
2022-08-08T08:53:27.899Z,57.97
2022-08-08T08:54:15.750Z,57.93
2022-08-08T08:55:16.151Z,57.31
2022-08-08T08:56:24.019Z,57.78
2022-08-08T08:57:17.410Z,55.99
2022-08-08T08:58:15.710Z,54.86
2022-08-08T08:59:17.229Z,56.01
2022-08-08T09:00:19.041Z,57.01
2022-08-08T09:01:15.804Z,58.48
2022-08-08T09:02:16.280Z,56.85
2022-08-08T09:03:15.669Z,55.83
2022-08-08T09:04:31.791Z,54.81
2022-08-08T09:05:48.744Z,54.81
2022-08-08T09:06:26.452Z,55.49
2022-08-08T09:07:16.498Z,55.71
2022-08-08T09:08:20.591Z,56.11
2022-08-08T09:09:26.742Z,55.91
2022-08-08T09:10:17.044Z,54.91
2022-08-08T09:11:15.628Z,55.39
2022-08-08T09:12:15.618Z,55.88
2022-08-08T09:13:15.623Z,54.27
2022-08-08T09:14:15.627Z,54.16
2022-08-08T09:15:18.605Z,54.69
2022-08-08T09:16:15.593Z,54.96
2022-08-08T09:17:18.781Z,54.06
2022-08-08T09:18:15.768Z,54.11
2022-08-08T09:19:15.558Z,54.01
2022-08-08T09:21:56.516Z,53.91
2022-08-08T09:21:58.261Z,54.24
2022-08-08T09:22:26.016Z,55.31
2022-08-08T09:23:17.503Z,53.99
2022-08-08T09:24:17.758Z,54.49
2022-08-08T09:25:15.538Z,53.22
2022-08-08T09:26:15.560Z,53.61
2022-08-08T09:27:21.004Z,53.86
2022-08-08T09:28:35.312Z,55.09
2022-08-08T09:29:22.157Z,54.46
2022-08-08T09:30:17.413Z,52.67
2022-08-08T09:31:15.484Z,51.97
2022-08-08T09:32:15.488Z,51.97
2022-08-08T09:34:14.744Z,51.87
2022-08-08T09:34:32.757Z,52.81
2022-08-08T09:35:16.183Z,51.70
2022-08-08T09:36:15.458Z,50.38
2022-08-08T09:37:57.906Z,49.70
2022-08-08T09:38:17.814Z,51.62
2022-08-08T09:39:19.395Z,52.04
2022-08-08T09:40:15.601Z,52.72
2022-08-08T09:41:15.426Z,52.42
2022-08-08T09:42:21.601Z,52.32
2022-08-08T09:43:16.771Z,54.19
2022-08-08T09:44:18.788Z,52.07
2022-08-08T09:45:54.139Z,51.65
2022-08-08T09:46:16.869Z,49.36
2022-08-08T09:48:04.625Z,51.45
2022-08-08T09:48:20.975Z,51.75
2022-08-08T09:49:41.178Z,51.60
2022-08-08T09:50:15.376Z,50.28
2022-08-08T09:51:16.254Z,47.77
2022-08-08T09:52:27.276Z,47.97
2022-08-08T09:53:23.506Z,47.55
2022-08-08T09:54:37.125Z,46.83
2022-08-08T09:55:17.287Z,46.86
2022-08-08T09:56:24.794Z,44.48
2022-08-08T09:57:16.466Z,46.53
2022-08-08T09:58:20.211Z,47.34
2022-08-08T09:59:50.581Z,47.34
2022-08-08T10:00:36.023Z,47.05
2022-08-08T10:01:59.186Z,47.86
2022-08-08T10:02:15.727Z,49.06
2022-08-08T10:03:15.301Z,48.76
2022-08-08T10:04:15.316Z,48.71
2022-08-08T10:05:15.685Z,47.56
2022-08-08T10:06:15.272Z,49.16
2022-08-08T10:07:25.872Z,50.23
2022-08-08T10:08:15.409Z,49.01
2022-08-08T10:09:15.554Z,48.17
2022-08-08T10:10:15.270Z,47.55
2022-08-08T10:12:27.985Z,47.08
2022-08-08T10:12:28.273Z,47.38
2022-08-08T10:13:15.285Z,45.81
2022-08-08T10:14:28.306Z,47.30
2022-08-08T10:15:18.134Z,48.10
2022-08-08T10:16:15.208Z,47.00
2022-08-08T10:18:06.251Z,47.38
2022-08-08T10:18:25.389Z,46.76
2022-08-08T10:19:15.166Z,47.33
2022-08-08T10:20:17.045Z,45.72
2022-08-08T10:21:24.936Z,46.39
2022-08-08T10:22:15.426Z,45.50
2022-08-08T10:23:41.205Z,45.08
2022-08-08T10:24:29.608Z,44.96
2022-08-08T10:25:15.930Z,43.46
2022-08-08T10:26:25.988Z,43.95
2022-08-08T10:27:15.123Z,43.24
2022-08-08T10:28:15.451Z,43.53
2022-08-08T10:29:22.912Z,44.23
2022-08-08T10:30:23.581Z,44.32
2022-08-08T10:31:15.105Z,45.19
2022-08-08T10:32:15.317Z,45.19
2022-08-08T10:33:18.071Z,44.28
2022-08-08T10:34:19.324Z,43.19
2022-08-08T10:35:20.340Z,43.39
2022-08-08T10:36:22.489Z,43.66
2022-08-08T10:37:15.084Z,44.78
2022-08-08T10:38:15.044Z,44.65
2022-08-08T10:39:15.074Z,43.59
2022-08-08T10:40:16.949Z,42.90
2022-08-08T10:41:15.054Z,44.28
2022-08-08T10:42:16.981Z,43.51
2022-08-08T10:43:15.155Z,44.23
2022-08-08T10:44:15.116Z,44.96
2022-08-08T10:45:15.871Z,45.20
2022-08-08T10:46:26.138Z,45.34
2022-08-08T10:47:15.099Z,45.94
2022-08-08T10:48:15.025Z,44.63
2022-08-08T10:49:26.826Z,46.12
2022-08-08T10:50:15.692Z,45.90
2022-08-08T10:51:14.954Z,45.50
2022-08-08T10:52:15.264Z,44.49
2022-08-08T10:53:15.284Z,43.89
2022-08-08T10:54:15.174Z,44.59
2022-08-08T10:55:15.636Z,43.77
2022-08-08T10:56:27.410Z,42.92
2022-08-08T10:57:14.937Z,42.26
2022-08-08T10:58:16.008Z,41.02
2022-08-08T10:59:15.018Z,39.60
2022-08-08T11:00:15.038Z,38.48
2022-08-08T11:01:15.806Z,36.99
2022-08-08T11:02:15.080Z,36.47
2022-08-08T11:03:15.583Z,37.74
2022-08-08T11:04:14.877Z,39.18
2022-08-08T11:05:17.649Z,41.33
2022-08-08T11:06:14.854Z,42.64
2022-08-08T11:08:30.352Z,41.61
2022-08-08T11:08:31.650Z,39.58
2022-08-08T11:09:20.134Z,39.32
2022-08-08T11:10:19.879Z,37.99
2022-08-08T11:11:59.735Z,37.54
2022-08-08T11:12:15.009Z,35.83
2022-08-08T11:13:31.721Z,35.70
2022-08-08T11:14:16.049Z,35.70
2022-08-08T11:15:14.803Z,34.41
2022-08-08T11:16:32.470Z,35.02
2022-08-08T11:17:15.123Z,36.07
2022-08-08T11:18:14.784Z,36.95
2022-08-08T11:19:15.670Z,37.49
2022-08-08T11:20:18.139Z,38.96
2022-08-08T11:21:20.280Z,38.21
2022-08-08T11:22:14.975Z,39.58
2022-08-08T11:23:14.744Z,38.95
2022-08-08T11:24:14.967Z,38.77
2022-08-08T11:25:16.432Z,39.62
2022-08-08T11:26:19.326Z,39.89
2022-08-08T11:27:20.150Z,39.25
2022-08-08T11:28:14.778Z,37.85
2022-08-08T11:29:15.781Z,38.57
2022-08-08T11:30:19.909Z,38.75
2022-08-08T11:31:15.513Z,37.29
2022-08-08T11:32:14.820Z,37.05
2022-08-08T11:33:14.686Z,37.71
2022-08-08T11:34:25.693Z,37.18
2022-08-08T11:35:27.071Z,36.47
2022-08-08T11:36:14.726Z,36.65
2022-08-08T11:37:15.570Z,35.23
2022-08-08T11:38:37.074Z,34.41
2022-08-08T11:39:14.883Z,34.47
2022-08-08T11:40:14.702Z,34.18
2022-08-08T11:41:14.636Z,34.26
2022-08-08T11:42:15.028Z,34.36
2022-08-08T11:43:14.636Z,34.41
2022-08-08T11:44:14.637Z,34.90
2022-08-08T11:45:18.297Z,34.33
2022-08-08T11:46:18.161Z,36.19
2022-08-08T11:47:17.177Z,34.61
2022-08-08T11:48:20.441Z,34.10
2022-08-08T11:49:17.191Z,33.41
2022-08-08T11:50:14.596Z,34.01
2022-08-08T11:51:38.356Z,33.59
2022-08-08T11:52:18.766Z,33.29
2022-08-08T11:53:14.588Z,33.09
2022-08-08T11:54:31.158Z,32.97
2022-08-08T11:55:15.583Z,33.97
2022-08-08T11:56:14.560Z,34.30
2022-08-08T11:57:17.107Z,34.11
2022-08-08T11:58:15.639Z,34.36
2022-08-08T11:59:14.537Z,36.57
2022-08-08T12:00:14.568Z,35.36
2022-08-08T12:01:16.200Z,34.92
2022-08-08T12:02:30.899Z,34.61
2022-08-08T12:03:14.649Z,33.90
2022-08-08T12:04:14.519Z,33.22
2022-08-08T12:05:14.517Z,32.71
2022-08-08T12:06:15.247Z,33.38
2022-08-08T12:07:17.254Z,33.90
2022-08-08T12:08:14.508Z,34.51
2022-08-08T12:09:17.370Z,35.13
2022-08-08T12:10:14.918Z,35.33
2022-08-08T12:11:14.476Z,36.05
2022-08-08T12:12:14.519Z,37.36
2022-08-08T12:13:15.061Z,36.83
2022-08-08T12:14:14.608Z,35.72
2022-08-08T12:15:14.465Z,35.05
2022-08-08T12:16:15.578Z,37.03
2022-08-08T12:17:14.464Z,36.72
2022-08-08T12:18:15.128Z,36.85
2022-08-08T12:19:14.429Z,39.72
2022-08-08T12:20:14.781Z,37.18
2022-08-08T12:21:14.597Z,38.28
2022-08-08T12:22:20.836Z,38.49
2022-08-08T12:23:25.358Z,37.01
2022-08-08T12:24:14.698Z,37.01
2022-08-08T12:25:14.413Z,36.20
2022-08-08T12:26:17.122Z,36.26
2022-08-08T12:27:14.508Z,36.34
2022-08-08T12:28:15.906Z,35.24
2022-08-08T12:29:14.598Z,35.14
2022-08-08T12:30:18.571Z,35.42
2022-08-08T12:31:14.389Z,34.15
2022-08-08T12:32:17.177Z,34.47
2022-08-08T12:33:14.508Z,35.97
2022-08-08T12:34:14.364Z,34.89
2022-08-08T12:35:18.033Z,35.97
2022-08-08T12:36:14.340Z,35.66
2022-08-08T12:37:14.698Z,36.44
2022-08-08T12:38:16.586Z,36.83
2022-08-08T12:39:14.381Z,37.63
2022-08-08T12:40:22.823Z,36.30
2022-08-08T12:41:33.708Z,38.49
2022-08-08T12:42:21.189Z,37.43
2022-08-08T12:43:14.298Z,38.42
2022-08-08T12:44:14.369Z,38.10
2022-08-08T12:45:53.487Z,37.30
2022-08-08T12:46:14.287Z,36.41
2022-08-08T12:47:14.270Z,36.10
2022-08-08T12:48:36.481Z,36.97
2022-08-08T12:49:25.817Z,37.43
2022-08-08T12:50:15.033Z,37.22
2022-08-08T12:51:14.248Z,36.59
2022-08-08T12:52:28.571Z,35.80